createdAt,value
2022-10-12T00:02:17.532Z,20.70
2022-10-12T00:04:48.298Z,20.70
2022-10-12T00:07:20.661Z,20.60
2022-10-12T00:09:51.367Z,20.70
2022-10-12T00:12:22.103Z,20.60
2022-10-12T00:14:53.046Z,20.60
2022-10-12T00:17:23.846Z,20.60
2022-10-12T00:19:54.603Z,20.40
2022-10-12T00:22:27.017Z,20.50
2022-10-12T00:24:57.755Z,20.40
2022-10-12T00:27:28.532Z,20.30
2022-10-12T00:29:59.267Z,20.30
2022-10-12T00:32:30.021Z,20.30
2022-10-12T00:35:00.757Z,20.30
2022-10-12T00:37:33.652Z,20.20
2022-10-12T00:40:04.506Z,20.10
2022-10-12T00:42:35.293Z,19.90
2022-10-12T00:45:06.114Z,19.90
2022-10-12T00:47:38.889Z,20.00
2022-10-12T00:50:15.557Z,20.00
2022-10-12T00:52:58.816Z,19.90
2022-10-12T00:55:32.186Z,19.80
2022-10-12T00:58:03.673Z,19.60
2022-10-12T01:00:34.706Z,19.50
2022-10-12T01:03:05.701Z,19.50
2022-10-12T01:05:36.574Z,19.40
2022-10-12T01:08:09.270Z,19.30
2022-10-12T01:10:40.065Z,19.10
2022-10-12T01:13:11.137Z,19.00
2022-10-12T01:15:48.152Z,18.90
2022-10-12T01:18:23.883Z,18.80
2022-10-12T01:21:21.249Z,18.70
2022-10-12T01:24:30.313Z,18.60
2022-10-12T01:27:32.343Z,18.50
2022-10-12T01:30:17.459Z,18.40
2022-10-12T01:33:02.622Z,18.30
2022-10-12T01:35:40.829Z,18.20
2022-10-12T01:38:21.196Z,18.10
2022-10-12T01:40:58.299Z,18.00
2022-10-12T01:43:37.474Z,17.90
2022-10-12T01:46:55.286Z,17.70
2022-10-12T01:49:29.897Z,17.60
2022-10-12T01:52:25.498Z,17.50
2022-10-12T01:55:22.590Z,17.50
2022-10-12T01:58:14.825Z,17.30
2022-10-12T02:00:50.658Z,17.20
2022-10-12T02:03:29.923Z,17.10
2022-10-12T02:06:03.956Z,17.00
2022-10-12T02:08:38.002Z,17.00
2022-10-12T02:11:11.839Z,16.90
2022-10-12T02:13:47.643Z,16.90
2022-10-12T02:16:21.613Z,16.80
2022-10-12T02:18:57.076Z,16.70
2022-10-12T02:21:32.063Z,16.70
2022-10-12T02:24:05.529Z,16.60
2022-10-12T02:26:38.328Z,16.50
2022-10-12T02:29:13.322Z,16.40
2022-10-12T02:31:52.298Z,16.30
2022-10-12T02:34:28.293Z,16.30
2022-10-12T02:37:05.830Z,16.30
2022-10-12T02:39:43.273Z,16.20
2022-10-12T02:42:19.387Z,16.10
2022-10-12T02:44:51.342Z,16.10
2022-10-12T02:47:23.910Z,16.10
2022-10-12T02:49:58.202Z,16.00
2022-10-12T02:52:29.514Z,15.90
2022-10-12T02:55:00.339Z,15.80
2022-10-12T02:57:31.090Z,15.80
2022-10-12T03:00:01.875Z,15.70
2022-10-12T03:02:32.613Z,15.70
2022-10-12T03:05:05.029Z,15.60
2022-10-12T03:07:36.075Z,15.60
2022-10-12T03:10:07.884Z,15.60
2022-10-12T03:12:38.614Z,15.60
2022-10-12T03:15:09.989Z,15.50
2022-10-12T03:17:40.782Z,15.50
2022-10-12T03:20:15.273Z,15.50
2022-10-12T03:22:46.010Z,15.50
2022-10-12T03:25:16.801Z,15.40
2022-10-12T03:27:47.553Z,15.40
2022-10-12T03:30:18.565Z,15.40
2022-10-12T03:32:49.287Z,15.40
2022-10-12T03:35:21.641Z,15.40
2022-10-12T03:37:52.470Z,15.30
2022-10-12T03:40:23.221Z,15.30
2022-10-12T03:42:54.059Z,15.30
2022-10-12T03:45:24.819Z,15.30
2022-10-12T03:47:55.554Z,15.30
2022-10-12T03:50:27.997Z,15.30
2022-10-12T03:52:58.949Z,15.30
2022-10-12T03:55:29.902Z,15.30
2022-10-12T03:58:00.695Z,15.40
2022-10-12T04:00:32.134Z,15.40
2022-10-12T04:03:04.609Z,15.40
2022-10-12T04:05:38.174Z,15.40
2022-10-12T04:08:09.156Z,15.40
2022-10-12T04:10:39.957Z,15.40
2022-10-12T04:13:10.685Z,15.30
2022-10-12T04:15:41.430Z,15.40
2022-10-12T04:18:12.358Z,15.40
2022-10-12T04:20:44.749Z,15.40
2022-10-12T04:23:15.549Z,15.30
2022-10-12T04:25:46.694Z,15.30
2022-10-12T04:28:17.463Z,15.30
2022-10-12T04:30:48.977Z,15.30
2022-10-12T04:33:19.745Z,15.30
2022-10-12T04:35:52.142Z,15.30
2022-10-12T04:38:22.896Z,15.30
2022-10-12T04:40:53.657Z,15.30
2022-10-12T04:43:24.398Z,15.30
2022-10-12T04:45:59.549Z,15.40
2022-10-12T04:48:30.615Z,15.30
2022-10-12T04:51:03.014Z,15.40
2022-10-12T04:53:33.776Z,15.40
2022-10-12T04:56:07.021Z,15.50
2022-10-12T04:58:37.830Z,15.60
2022-10-12T05:01:08.925Z,15.60
2022-10-12T05:03:42.090Z,15.50
2022-10-12T05:06:14.723Z,15.40
2022-10-12T05:08:45.459Z,15.40
2022-10-12T05:11:16.256Z,15.30
2022-10-12T05:13:47.023Z,15.20
2022-10-12T05:16:17.790Z,15.10
2022-10-12T05:18:48.785Z,15.10
2022-10-12T05:21:21.153Z,15.00
2022-10-12T05:23:55.102Z,15.00
2022-10-12T05:26:25.851Z,14.90
2022-10-12T05:28:56.650Z,14.90
2022-10-12T05:31:27.483Z,14.80
2022-10-12T05:33:58.204Z,14.80
2022-10-12T05:36:30.608Z,14.80
2022-10-12T05:39:01.324Z,14.80
2022-10-12T05:41:32.098Z,14.70
2022-10-12T05:44:02.889Z,14.50
2022-10-12T05:46:33.624Z,14.50
2022-10-12T05:49:04.524Z,14.40
2022-10-12T05:51:36.916Z,14.20
2022-10-12T05:54:07.773Z,14.30
2022-10-12T05:56:38.526Z,14.10
2022-10-12T05:59:09.266Z,14.10
2022-10-12T06:01:40.199Z,14.10
2022-10-12T06:04:11.739Z,14.00
2022-10-12T06:06:44.087Z,14.10
2022-10-12T06:09:14.838Z,14.00
2022-10-12T06:11:46.392Z,14.00
2022-10-12T06:14:18.129Z,13.90
2022-10-12T06:16:51.126Z,13.90
2022-10-12T06:19:25.201Z,13.80
2022-10-12T06:21:57.608Z,13.70
2022-10-12T06:24:28.380Z,13.70
2022-10-12T06:26:59.352Z,13.60
2022-10-12T06:29:30.900Z,13.60
2022-10-12T06:32:02.674Z,13.60
2022-10-12T06:34:33.408Z,13.60
2022-10-12T06:37:05.861Z,13.50
2022-10-12T06:39:36.600Z,13.50
2022-10-12T06:42:08.838Z,13.50
2022-10-12T06:44:40.611Z,13.40
2022-10-12T06:47:11.361Z,13.40
2022-10-12T06:49:42.115Z,13.40
2022-10-12T06:52:14.507Z,13.40
2022-10-12T06:54:45.239Z,13.40
2022-10-12T06:57:15.988Z,13.40
2022-10-12T06:59:46.754Z,13.30
2022-10-12T07:02:17.517Z,13.30
2022-10-12T07:04:51.674Z,13.20
2022-10-12T07:07:24.059Z,13.10
2022-10-12T07:09:55.290Z,13.10
2022-10-12T07:12:26.127Z,13.10
2022-10-12T07:14:57.186Z,13.00
2022-10-12T07:17:28.021Z,13.00
2022-10-12T07:19:59.754Z,13.00
2022-10-12T07:22:32.148Z,13.00
2022-10-12T07:25:02.869Z,12.90
2022-10-12T07:27:33.605Z,12.90
2022-10-12T07:30:04.401Z,12.90
2022-10-12T07:32:35.176Z,12.80
2022-10-12T07:35:06.053Z,12.70
2022-10-12T07:37:38.858Z,12.70
2022-10-12T07:40:11.103Z,12.60
2022-10-12T07:42:59.133Z,12.70
2022-10-12T07:45:32.639Z,12.70
2022-10-12T07:48:03.374Z,12.70
2022-10-12T07:50:34.095Z,12.60
2022-10-12T07:53:06.558Z,12.60
2022-10-12T07:55:37.279Z,12.50
2022-10-12T07:58:08.342Z,12.50
2022-10-12T08:00:39.090Z,12.50
2022-10-12T08:03:09.830Z,12.40
2022-10-12T08:05:40.557Z,12.40
2022-10-12T08:08:12.915Z,12.40
2022-10-12T08:10:43.679Z,12.40
2022-10-12T08:13:14.454Z,12.30
2022-10-12T08:15:50.781Z,12.30
2022-10-12T08:18:21.545Z,12.20
2022-10-12T08:20:52.306Z,12.20
2022-10-12T08:23:24.959Z,12.30
2022-10-12T08:25:56.423Z,12.30
2022-10-12T08:28:27.839Z,12.20
2022-10-12T08:30:58.623Z,12.20
2022-10-12T08:33:32.429Z,12.20
2022-10-12T08:36:05.714Z,12.20
2022-10-12T08:38:39.625Z,12.10
2022-10-12T08:41:23.946Z,12.10
2022-10-12T08:44:09.289Z,12.00
2022-10-12T08:46:40.155Z,12.00
2022-10-12T08:49:16.323Z,11.90
2022-10-12T08:51:51.845Z,11.90
2022-10-12T08:54:26.966Z,11.80
2022-10-12T08:56:58.690Z,11.80
2022-10-12T08:59:30.966Z,11.80
2022-10-12T09:02:16.389Z,11.70
2022-10-12T09:04:56.613Z,11.70
2022-10-12T09:07:31.978Z,11.60
2022-10-12T09:10:19.555Z,11.70
2022-10-12T09:12:57.890Z,11.70
2022-10-12T09:15:34.535Z,11.70
2022-10-12T09:18:08.983Z,11.70
2022-10-12T09:20:48.392Z,11.70
2022-10-12T09:23:26.770Z,11.60
2022-10-12T09:26:04.618Z,11.50
2022-10-12T09:28:41.780Z,11.40
2022-10-12T09:31:27.633Z,11.40
2022-10-12T09:34:00.444Z,11.40
2022-10-12T09:36:35.055Z,11.40
2022-10-12T09:39:08.947Z,11.30
2022-10-12T09:41:45.553Z,11.40
2022-10-12T09:44:25.363Z,11.30
2022-10-12T09:47:00.697Z,11.30
2022-10-12T09:49:44.106Z,11.30
2022-10-12T09:52:17.055Z,11.30
2022-10-12T09:54:51.407Z,11.30
2022-10-12T09:57:28.327Z,11.30
2022-10-12T09:59:59.213Z,11.30
2022-10-12T10:02:30.559Z,11.30
2022-10-12T10:05:25.168Z,11.30
2022-10-12T10:07:56.114Z,11.30
2022-10-12T10:10:30.644Z,11.30
2022-10-12T10:13:06.353Z,11.30
2022-10-12T10:15:39.808Z,11.20
2022-10-12T10:18:23.574Z,11.10
2022-10-12T10:20:56.498Z,11.10
2022-10-12T10:23:29.425Z,11.00
2022-10-12T10:26:02.488Z,11.00
2022-10-12T10:28:36.154Z,11.00
2022-10-12T10:31:08.618Z,11.00
2022-10-12T10:33:39.750Z,11.10
2022-10-12T10:36:20.977Z,11.10
2022-10-12T10:39:00.038Z,11.10
2022-10-12T10:41:34.658Z,11.10
2022-10-12T10:44:08.095Z,11.00
2022-10-12T10:46:40.216Z,11.00
2022-10-12T10:49:12.278Z,10.90
2022-10-12T10:51:46.249Z,10.90
2022-10-12T10:54:19.115Z,10.90
2022-10-12T10:56:51.208Z,10.80
2022-10-12T10:59:33.153Z,10.80
2022-10-12T11:02:07.598Z,10.70
2022-10-12T11:04:43.455Z,10.80
2022-10-12T11:07:23.703Z,10.80
2022-10-12T11:09:57.635Z,10.80
2022-10-12T11:12:32.401Z,10.80
2022-10-12T11:15:15.499Z,10.80
2022-10-12T11:17:49.330Z,10.70
2022-10-12T11:20:37.079Z,10.70
2022-10-12T11:23:17.525Z,10.70
2022-10-12T11:25:58.988Z,10.80
2022-10-12T11:28:35.122Z,10.70
2022-10-12T11:31:10.036Z,10.70
2022-10-12T11:33:44.237Z,10.70
2022-10-12T11:36:17.449Z,10.60
2022-10-12T11:38:56.516Z,10.60
2022-10-12T11:41:36.758Z,10.50
2022-10-12T11:44:14.687Z,10.40
2022-10-12T11:46:49.761Z,10.40
2022-10-12T11:49:28.455Z,10.40
2022-10-12T11:52:02.398Z,10.40
2022-10-12T11:54:39.640Z,10.40
2022-10-12T11:57:16.238Z,10.40
2022-10-12T11:59:51.115Z,10.30
2022-10-12T12:02:28.074Z,10.30
2022-10-12T12:04:59.696Z,10.30
2022-10-12T12:07:46.530Z,10.40
2022-10-12T12:10:54.883Z,10.30
2022-10-12T12:13:27.963Z,10.20
2022-10-12T12:16:33.084Z,10.20
2022-10-12T12:19:34.404Z,10.20
2022-10-12T12:22:29.725Z,10.20
2022-10-12T12:25:25.072Z,10.20
2022-10-12T12:27:58.486Z,10.30
2022-10-12T12:30:39.536Z,10.20
2022-10-12T12:33:30.234Z,10.20
2022-10-12T12:36:05.280Z,10.10
2022-10-12T12:38:38.169Z,10.10
2022-10-12T12:41:13.230Z,10.10
2022-10-12T12:44:05.519Z,10.10
2022-10-12T12:47:44.550Z,10.10
2022-10-12T12:50:34.248Z,10.10
2022-10-12T12:53:10.772Z,10.10
2022-10-12T12:56:05.530Z,10.10
2022-10-12T12:59:07.073Z,10.10
2022-10-12T13:01:55.226Z,10.10
2022-10-12T13:04:53.307Z,10.00
2022-10-12T13:07:56.609Z,10.00
2022-10-12T13:10:43.438Z,10.00
2022-10-12T13:13:39.238Z,10.00
2022-10-12T13:16:57.213Z,10.00
2022-10-12T13:19:18.721Z,10.00
2022-10-12T13:21:55.594Z,9.90
2022-10-12T13:24:29.598Z,9.90
2022-10-12T13:27:07.514Z,9.90
2022-10-12T13:29:44.153Z,10.00
2022-10-12T13:32:25.319Z,10.00
2022-10-12T13:34:58.003Z,9.90
2022-10-12T13:37:34.747Z,9.90
2022-10-12T13:40:06.216Z,9.90
2022-10-12T13:42:38.695Z,9.80
2022-10-12T13:45:18.397Z,9.80
2022-10-12T13:47:49.151Z,9.80
2022-10-12T13:50:22.915Z,9.70
2022-10-12T13:52:57.127Z,9.70
2022-10-12T13:55:29.996Z,9.60
2022-10-12T13:58:02.375Z,9.60
2022-10-12T14:00:36.234Z,9.60
2022-10-12T14:03:08.863Z,9.60
2022-10-12T14:05:46.922Z,9.60
2022-10-12T14:08:22.150Z,9.60
2022-10-12T14:10:52.966Z,9.50
2022-10-12T14:13:29.438Z,9.50
2022-10-12T14:16:02.264Z,9.40
2022-10-12T14:18:41.382Z,9.40
2022-10-12T14:21:20.182Z,9.40
2022-10-12T14:23:57.881Z,9.40
2022-10-12T14:26:31.834Z,9.50
2022-10-12T14:29:24.258Z,9.40
2022-10-12T14:31:56.480Z,9.40
2022-10-12T14:34:47.395Z,9.40
2022-10-12T14:37:27.566Z,9.50
2022-10-12T14:40:03.217Z,9.40
2022-10-12T14:42:36.418Z,9.50
2022-10-12T14:45:26.348Z,9.50
2022-10-12T14:47:57.296Z,9.50
2022-10-12T14:50:28.155Z,9.60
2022-10-12T14:53:01.215Z,9.60
2022-10-12T14:55:36.412Z,9.70
2022-10-12T14:58:08.967Z,9.60
2022-10-12T15:00:41.555Z,9.70
2022-10-12T15:03:12.430Z,9.80
2022-10-12T15:05:43.215Z,9.90
2022-10-12T15:08:13.912Z,9.90
2022-10-12T15:10:44.745Z,10.00
2022-10-12T15:13:17.001Z,10.00
2022-10-12T15:15:50.978Z,10.00
2022-10-12T15:18:21.755Z,10.00
2022-10-12T15:20:52.580Z,10.00
2022-10-12T15:23:23.341Z,10.00
2022-10-12T15:26:00.552Z,10.10
2022-10-12T15:28:31.397Z,10.20
2022-10-12T15:31:16.824Z,10.30
2022-10-12T15:33:48.462Z,10.30
2022-10-12T15:36:19.193Z,10.40
2022-10-12T15:38:50.024Z,10.40
2022-10-12T15:41:23.434Z,10.50
2022-10-12T15:43:54.177Z,10.70
2022-10-12T15:46:26.782Z,10.70
2022-10-12T15:48:57.604Z,10.80
2022-10-12T15:51:28.758Z,10.90
2022-10-12T15:53:59.656Z,11.10
2022-10-12T15:56:30.749Z,11.20
2022-10-12T15:59:01.491Z,11.30
2022-10-12T16:01:35.568Z,11.50
2022-10-12T16:04:06.961Z,11.80
2022-10-12T16:06:37.705Z,13.10
2022-10-12T16:09:08.425Z,15.80
2022-10-12T16:11:39.321Z,18.40
2022-10-12T16:14:10.084Z,20.20
2022-10-12T16:16:42.457Z,21.50
2022-10-12T16:19:13.245Z,21.90
2022-10-12T16:21:43.995Z,22.70
2022-10-12T16:24:14.758Z,23.80
2022-10-12T16:26:48.046Z,24.50
2022-10-12T16:29:18.807Z,25.20
2022-10-12T16:31:51.185Z,25.30
2022-10-12T16:34:24.720Z,26.10
2022-10-12T16:36:56.586Z,25.70
2022-10-12T16:39:28.500Z,25.90
2022-10-12T16:41:59.266Z,26.50
2022-10-12T16:44:30.034Z,26.30
2022-10-12T16:47:02.866Z,27.30
2022-10-12T16:49:33.653Z,27.20
2022-10-12T16:52:04.668Z,27.00
2022-10-12T16:54:35.813Z,27.50
2022-10-12T16:57:06.626Z,27.60
2022-10-12T16:59:37.422Z,27.60
2022-10-12T17:02:10.153Z,27.90
2022-10-12T17:04:40.981Z,28.10
2022-10-12T17:07:12.834Z,29.00
2022-10-12T17:09:43.682Z,28.90
2022-10-12T17:12:14.772Z,28.40
2022-10-12T17:14:45.842Z,28.10
2022-10-12T17:17:18.563Z,28.00
2022-10-12T17:19:49.513Z,28.50
2022-10-12T17:22:20.331Z,28.40
2022-10-12T17:24:51.266Z,28.80
2022-10-12T17:27:22.010Z,29.00
2022-10-12T17:29:52.767Z,29.10
2022-10-12T17:32:25.165Z,29.10
2022-10-12T17:34:55.931Z,29.20
2022-10-12T17:37:26.702Z,29.30
2022-10-12T17:39:57.715Z,29.10
2022-10-12T17:42:29.126Z,29.90
2022-10-12T17:44:59.867Z,30.20
2022-10-12T17:47:32.336Z,29.40
2022-10-12T17:50:03.178Z,29.50
2022-10-12T17:52:33.942Z,29.80
2022-10-12T17:55:04.743Z,29.50
2022-10-12T17:57:35.510Z,29.40
2022-10-12T18:00:08.412Z,28.90
2022-10-12T18:02:40.792Z,28.90
2022-10-12T18:05:11.835Z,29.20
2022-10-12T18:07:42.581Z,29.90
2022-10-12T18:10:13.807Z,29.10
2022-10-12T18:12:45.896Z,28.30
2022-10-12T18:15:17.045Z,28.20
2022-10-12T18:17:50.761Z,28.40
2022-10-12T18:20:21.584Z,29.00
2022-10-12T18:22:52.360Z,28.40
2022-10-12T18:25:23.139Z,29.00
2022-10-12T18:27:53.878Z,28.40
2022-10-12T18:30:24.640Z,28.20
2022-10-12T18:32:57.057Z,28.90
2022-10-12T18:35:29.191Z,28.50
2022-10-12T18:37:59.948Z,28.10
2022-10-12T18:40:30.707Z,28.70
2022-10-12T18:43:01.446Z,28.90
2022-10-12T18:45:32.902Z,28.80
2022-10-12T18:48:07.783Z,28.70
2022-10-12T18:50:38.683Z,28.30
2022-10-12T18:53:09.597Z,27.90
2022-10-12T18:55:40.476Z,27.80
2022-10-12T18:58:11.266Z,28.20
2022-10-12T19:00:44.021Z,28.00
2022-10-12T19:03:17.396Z,28.30
2022-10-12T19:05:48.167Z,28.20
2022-10-12T19:08:18.922Z,28.20
2022-10-12T19:10:49.660Z,28.10
2022-10-12T19:13:20.394Z,27.20
2022-10-12T19:15:51.120Z,27.30
2022-10-12T19:18:23.533Z,27.90
2022-10-12T19:20:54.273Z,27.90
2022-10-12T19:23:25.028Z,28.00
2022-10-12T19:25:55.757Z,27.30
2022-10-12T19:28:26.606Z,27.10
2022-10-12T19:30:57.427Z,26.70
2022-10-12T19:33:31.511Z,26.70
2022-10-12T19:36:04.506Z,26.40
2022-10-12T19:38:35.402Z,26.40
2022-10-12T19:41:06.651Z,26.20
2022-10-12T19:43:38.190Z,25.90
2022-10-12T19:46:10.184Z,26.10
2022-10-12T19:48:45.575Z,26.20
2022-10-12T19:51:17.492Z,26.10
2022-10-12T19:53:48.627Z,26.10
2022-10-12T19:56:21.606Z,26.00
2022-10-12T19:58:53.485Z,25.90
2022-10-12T20:01:25.494Z,25.80
2022-10-12T20:03:58.238Z,25.60
2022-10-12T20:06:31.211Z,25.70
2022-10-12T20:09:03.804Z,25.70
2022-10-12T20:11:34.966Z,25.70
2022-10-12T20:14:05.752Z,25.60
2022-10-12T20:16:36.788Z,25.50
2022-10-12T20:19:10.553Z,25.40
2022-10-12T20:21:41.325Z,25.40
2022-10-12T20:24:12.519Z,25.20
2022-10-12T20:26:43.277Z,25.30
2022-10-12T20:29:14.186Z,25.40
2022-10-12T20:31:45.445Z,25.30
2022-10-12T20:34:17.877Z,25.30
2022-10-12T20:36:48.838Z,25.40
2022-10-12T20:39:19.646Z,25.10
2022-10-12T20:41:50.370Z,25.10
2022-10-12T20:44:21.109Z,25.10
2022-10-12T20:46:53.411Z,25.30
2022-10-12T20:49:25.774Z,25.20
2022-10-12T20:51:56.583Z,25.30
2022-10-12T20:54:27.355Z,25.30
2022-10-12T20:56:58.410Z,25.40
2022-10-12T20:59:29.231Z,25.40
2022-10-12T21:01:59.966Z,25.30
2022-10-12T21:04:37.494Z,25.40
2022-10-12T21:07:09.160Z,25.40
2022-10-12T21:09:39.875Z,25.20
2022-10-12T21:12:10.693Z,25.40
2022-10-12T21:14:41.443Z,25.30
2022-10-12T21:17:12.198Z,25.20
2022-10-12T21:19:44.630Z,25.30
2022-10-12T21:22:15.628Z,25.40
2022-10-12T21:24:46.618Z,25.40
2022-10-12T21:27:17.351Z,25.40
2022-10-12T21:29:48.118Z,25.40
2022-10-12T21:32:19.025Z,25.40
2022-10-12T21:34:52.719Z,25.50
2022-10-12T21:37:23.449Z,25.50
2022-10-12T21:39:54.579Z,25.40
2022-10-12T21:42:25.418Z,25.30
2022-10-12T21:44:56.147Z,25.20
2022-10-12T21:47:26.938Z,25.20
2022-10-12T21:49:59.335Z,25.20
2022-10-12T21:52:30.116Z,25.20
2022-10-12T21:55:00.875Z,25.20
2022-10-12T21:57:32.148Z,25.00
2022-10-12T22:00:02.903Z,25.00
2022-10-12T22:02:33.662Z,25.00
2022-10-12T22:05:06.161Z,24.90
2022-10-12T22:07:36.928Z,25.10
2022-10-12T22:10:08.213Z,25.20
2022-10-12T22:12:38.946Z,25.20
2022-10-12T22:15:10.670Z,25.20
2022-10-12T22:17:41.450Z,25.30
2022-10-12T22:20:14.800Z,25.20
2022-10-12T22:22:45.537Z,25.10
2022-10-12T22:25:16.337Z,24.80
2022-10-12T22:27:47.075Z,25.00
2022-10-12T22:30:17.947Z,25.00
2022-10-12T22:32:48.694Z,25.00
2022-10-12T22:35:21.123Z,25.00
2022-10-12T22:37:51.916Z,25.00
2022-10-12T22:40:22.689Z,25.00
2022-10-12T22:42:54.978Z,24.90
2022-10-12T22:45:28.055Z,24.90
2022-10-12T22:47:59.066Z,24.90
2022-10-12T22:50:31.869Z,24.90
2022-10-12T22:53:02.614Z,24.80
2022-10-12T22:55:33.564Z,24.80
2022-10-12T22:58:05.326Z,24.80
2022-10-12T23:00:36.397Z,24.70
2022-10-12T23:03:07.646Z,24.70
2022-10-12T23:05:40.107Z,24.70
2022-10-12T23:08:15.827Z,24.70
2022-10-12T23:10:46.585Z,24.60
2022-10-12T23:13:17.327Z,24.60
2022-10-12T23:15:48.089Z,24.60
2022-10-12T23:18:19.023Z,24.60
2022-10-12T23:20:51.406Z,24.50
2022-10-12T23:23:22.177Z,24.50
2022-10-12T23:25:52.950Z,24.50
2022-10-12T23:28:23.751Z,24.40
2022-10-12T23:30:54.644Z,24.40
2022-10-12T23:33:25.505Z,24.40
2022-10-12T23:36:02.458Z,24.40
2022-10-12T23:38:34.197Z,24.30
2022-10-12T23:41:05.541Z,24.30
2022-10-12T23:43:36.653Z,24.20
2022-10-12T23:46:08.229Z,24.00
2022-10-12T23:48:39.016Z,24.00
2022-10-12T23:51:12.489Z,23.90
2022-10-12T23:53:44.332Z,23.80
2022-10-12T23:56:15.202Z,23.70
2022-10-12T23:58:45.954Z,23.70
